Time;durP1;ratioP1;P1;durP2;ratioP2;P2;SDS_P1;SDS_P2;PMS_P1;PMS_P2;Temp;Humidity;BMP_temperature;BMP_pressure;BME280_temperature;BME280_humidity;BME280_pressure;Samples;Min_cycle;Max_cycle;Signal;HPM_P1;HPM_P2
2023/06/24 00:03:47;;;;;;;3.65;3.25;;;;;;;20.43;53.67;99982.44;7296870;39;20263;31
2023/06/24 00:09:05;;;;;;;4.00;3.50;;;;;;;20.31;52.81;99973.19;7277889;40;20252;31
2023/06/24 00:14:40;;;;;;;4.30;3.30;;;;;;;20.10;55.02;99982.38;7279784;40;20311;31
2023/06/24 00:20:17;;;;;;;3.85;3.50;;;;;;;19.86;55.77;99973.94;7239401;40;20257;31
2023/06/24 00:25:37;;;;;;;4.67;3.50;;;;;;;19.67;55.55;99970.94;7238111;40;20319;31
2023/06/24 00:30:58;;;;;;;5.40;3.40;;;;;;;19.69;56.53;99977.06;7296040;39;20337;31
2023/06/24 00:36:35;;;;;;;4.18;3.75;;;;;;;19.96;55.37;99969.75;7304498;39;20237;31
2023/06/24 00:41:56;;;;;;;4.47;3.60;;;;;;;19.68;56.79;99974.53;7228813;40;20257;31
2023/06/24 00:47:30;;;;;;;4.37;3.97;;;;;;;19.25;57.72;99974.78;7221927;40;20317;31
2023/06/24 00:53:06;;;;;;;4.97;3.60;;;;;;;19.05;58.05;99968.34;7139428;40;20259;31
2023/06/24 00:58:42;;;;;;;4.37;3.37;;;;;;;18.74;58.79;99982.44;7223324;39;20268;31
2023/06/24 01:09:23;;;;;;;4.95;3.75;;;;;;;19.34;57.01;99975.44;7268289;39;20264;31
2023/06/24 01:14:58;;;;;;;4.67;3.93;;;;;;;19.01;58.67;99979.88;7272888;40;20238;31
2023/06/24 01:20:33;;;;;;;3.90;3.50;;;;;;;18.82;59.66;99967.81;7232947;40;20264;31
2023/06/24 01:26:34;;;;;;;3.93;3.50;;;;;;;18.79;59.69;99981.84;7274235;40;20230;31
2023/06/24 01:32:10;;;;;;;4.60;3.70;;;;;;;18.94;58.43;99984.47;7120084;40;20298;31
2023/06/24 01:37:47;;;;;;;4.90;4.15;;;;;;;19.05;58.52;99983.91;7241224;40;20339;31
2023/06/24 01:43:21;;;;;;;4.20;3.80;;;;;;;18.78;58.79;99994.66;7211802;40;20242;31
2023/06/24 01:48:53;;;;;;;4.57;4.17;;;;;;;18.60;58.84;99991.63;7001724;40;21247;31
2023/06/24 01:54:28;;;;;;;3.83;3.43;;;;;;;18.44;60.30;99986.41;7118866;40;20387;31
2023/06/24 02:05:44;;;;;;;16.13;4.17;;;;;;;18.33;59.60;99992.41;7225860;40;20245;31
2023/06/24 02:11:19;;;;;;;4.73;4.07;;;;;;;18.24;60.10;99988.97;7284474;40;20248;31
2023/06/24 02:16:56;;;;;;;4.70;3.90;;;;;;;18.14;61.59;99966.62;7322667;39;20272;31
2023/06/24 02:27:35;;;;;;;3.77;3.37;;;;;;;17.96;62.02;99969.81;7250263;40;20376;31
2023/06/24 02:38:12;;;;;;;5.23;3.67;;;;;;;18.48;60.06;99968.56;7252874;39;20312;31
2023/06/24 02:43:48;;;;;;;5.55;3.80;;;;;;;18.76;59.07;99963.16;7253991;40;20272;31
2023/06/24 02:54:27;;;;;;;4.70;3.70;;;;;;;18.25;61.21;99970.72;7293380;40;20711;31
2023/06/24 03:05:08;;;;;;;4.40;4.00;;;;;;;17.67;63.11;99964.50;7282527;40;20267;31
2023/06/24 03:10:43;;;;;;;4.00;3.60;;;;;;;17.64;62.22;99964.03;7255605;40;20253;31
2023/06/24 03:16:16;;;;;;;6.17;4.03;;;;;;;17.56;63.54;99976.72;7238945;40;20428;31
2023/06/24 03:21:52;;;;;;;4.80;4.10;;;;;;;17.89;62.05;99979.00;7233719;40;20293;31
2023/06/24 03:27:12;;;;;;;5.10;4.30;;;;;;;18.26;61.00;99983.31;7226902;40;20238;31
2023/06/24 03:32:36;;;;;;;5.00;4.17;;;;;;;18.41;60.28;100000.47;7213668;40;20458;31
2023/06/24 03:38:09;;;;;;;5.75;4.50;;;;;;;18.05;61.55;99986.06;7216416;40;20246;31
2023/06/24 03:43:44;;;;;;;4.73;4.07;;;;;;;18.13;61.43;99991.38;7238769;40;20245;31
2023/06/24 03:49:19;;;;;;;4.90;4.05;;;;;;;18.23;60.79;99986.44;7232838;39;20252;31
2023/06/24 03:54:55;;;;;;;5.90;3.90;;;;;;;17.89;62.38;99990.75;7235292;40;21446;31
2023/06/24 04:00:17;;;;;;;4.30;3.55;;;;;;;17.87;61.58;99994.69;7148424;40;20318;31
2023/06/24 04:05:51;;;;;;;6.17;4.43;;;;;;;17.97;61.17;99993.34;7186644;40;20449;31
2023/06/24 04:11:26;;;;;;;9.43;4.93;;;;;;;18.25;60.64;99996.13;7163335;40;20270;31
2023/06/24 04:16:46;;;;;;;7.20;4.85;;;;;;;18.41;60.31;100006.75;7253464;40;20247;31
2023/06/24 04:22:21;;;;;;;5.20;4.70;;;;;;;18.45;60.57;100010.78;7257434;40;20245;31
2023/06/24 04:27:55;;;;;;;4.60;4.20;;;;;;;18.46;60.11;100019.81;7305910;39;20240;31
2023/06/24 04:33:15;;;;;;;5.33;4.33;;;;;;;18.46;60.10;100025.28;7262596;39;20719;31
2023/06/24 04:38:50;;;;;;;5.67;4.43;;;;;;;18.41;60.49;100028.59;7204693;40;20269;31
2023/06/24 04:44:26;;;;;;;4.77;4.20;;;;;;;18.35;61.36;100034.00;7203803;40;20817;31
2023/06/24 04:49:46;;;;;;;6.75;4.30;;;;;;;18.27;62.27;100036.84;7156148;40;20798;31
2023/06/24 04:55:08;;;;;;;4.30;3.90;;;;;;;18.22;62.27;100039.31;7170543;40;20784;31
2023/06/24 05:00:44;;;;;;;6.35;3.70;;;;;;;18.44;61.84;100039.12;7226748;40;20713;31
2023/06/24 05:06:17;;;;;;;4.93;4.07;;;;;;;18.64;61.75;100046.69;7203113;40;20934;31
2023/06/24 05:11:52;;;;;;;5.60;3.80;;;;;;;18.73;61.79;100037.31;7158734;40;20706;31
2023/06/24 05:17:28;;;;;;;4.33;3.90;;;;;;;18.96;61.32;100043.34;7175935;40;20706;31
2023/06/24 05:22:48;;;;;;;4.30;3.90;;;;;;;19.12;60.53;100050.37;7238792;40;20799;31
2023/06/24 05:28:24;;;;;;;6.07;4.40;;;;;;;19.27;62.00;100049.19;7272284;40;20832;31
2023/06/24 05:34:00;;;;;;;4.30;3.90;;;;;;;19.48;60.85;100052.94;7308456;39;20702;31
2023/06/24 05:39:36;;;;;;;4.70;4.20;;;;;;;19.71;60.33;100048.81;7299048;39;20338;31
2023/06/24 05:45:11;;;;;;;5.43;4.87;;;;;;;19.71;61.12;100046.06;7256861;40;20245;31
2023/06/24 05:50:49;;;;;;;6.90;5.00;;;;;;;19.83;60.71;100053.72;7278226;39;20250;31
2023/06/24 05:56:25;;;;;;;7.10;4.50;;;;;;;20.08;60.22;100057.56;7258196;40;20873;31
2023/06/24 06:01:45;;;;;;;7.58;5.04;;;;;;;20.36;59.52;100063.75;7240968;40;20759;31
2023/06/24 06:07:22;;;;;;;6.00;4.60;;;;;;;20.52;59.17;100065.25;7228325;40;20786;31
2023/06/24 06:12:57;;;;;;;7.67;4.90;;;;;;;20.57;58.62;100055.34;7238020;40;20699;31
2023/06/24 06:23:37;;;;;;;7.23;4.93;;;;;;;21.15;59.06;100068.41;7232032;40;20283;31
2023/06/24 06:34:02;;;;;;;4.96;4.40;;;;;;;21.54;57.76;100060.91;7292589;39;20269;31
2023/06/24 06:44:42;;;;;;;5.82;4.50;;;;;;;21.94;57.16;100053.38;7309384;39;20367;31
2023/06/24 06:50:19;;;;;;;5.50;4.70;;;;;;;22.16;56.34;100062.12;7256492;40;20803;31
2023/06/24 06:55:42;;;;;;;5.45;4.35;;;;;;;22.29;56.41;100062.03;7330251;39;20734;31
2023/06/24 07:01:16;;;;;;;7.87;4.67;;;;;;;22.46;57.16;100054.97;7319179;39;20244;31
2023/06/24 07:06:51;;;;;;;6.20;4.60;;;;;;;22.73;55.68;100058.34;7240155;40;22107;31
2023/06/24 07:17:32;;;;;;;6.72;4.82;;;;;;;23.10;54.70;100047.44;7235069;40;20273;31
2023/06/24 07:27:56;;;;;;;6.62;4.70;;;;;;;23.50;54.54;100050.66;7324842;39;20282;31
2023/06/24 07:33:33;;;;;;;5.15;4.35;;;;;;;23.78;53.67;100043.50;7335391;39;20243;31
2023/06/24 07:39:07;;;;;;;4.55;4.15;;;;;;;24.05;53.44;100040.37;7317965;39;20706;31
2023/06/24 07:44:28;;;;;;;6.20;4.80;;;;;;;24.38;52.08;100048.22;7240698;40;20276;31
2023/06/24 07:50:05;;;;;;;4.80;4.40;;;;;;;24.61;51.40;100051.03;7267018;39;20715;31
2023/06/24 07:55:24;;;;;;;5.65;4.40;;;;;;;24.81;49.66;100048.78;7247363;40;20954;31
2023/06/24 08:00:44;;;;;;;4.97;4.03;;;;;;;25.05;50.07;100055.19;7252883;39;20268;31
2023/06/24 08:06:21;;;;;;;5.68;4.20;;;;;;;25.11;47.57;100051.44;7298679;39;20709;31
2023/06/24 08:11:41;;;;;;;5.20;4.00;;;;;;;25.33;46.98;100043.38;7261877;39;21273;31
2023/06/24 08:17:16;;;;;;;4.60;4.10;;;;;;;25.43;46.53;100038.09;7297218;39;20257;31
2023/06/24 08:22:52;;;;;;;5.55;3.90;;;;;;;25.58;47.34;100041.25;7278848;40;20713;31
2023/06/24 08:28:27;;;;;;;7.30;4.67;;;;;;;25.74;45.95;100023.91;7258788;40;20787;31
2023/06/24 08:33:47;;;;;;;4.00;3.60;;;;;;;25.93;45.79;100028.13;7197986;40;20333;31
2023/06/24 08:39:24;;;;;;;4.40;3.80;;;;;;;26.13;45.56;100029.63;7192511;40;20397;31
2023/06/24 08:44:44;;;;;;;6.05;4.20;;;;;;;26.27;43.75;100029.09;7255862;40;20727;31
2023/06/24 08:50:17;;;;;;;4.47;3.65;;;;;;;26.32;44.27;100034.72;7086485;40;21309;31
2023/06/24 08:55:53;;;;;;;4.68;3.26;;;;;;;26.58;42.48;100024.13;7260089;40;20253;31
2023/06/24 09:01:28;;;;;;;4.63;3.40;;;;;;;26.73;43.26;100039.03;7235264;40;20859;31
2023/06/24 09:07:03;;;;;;;3.96;3.56;;;;;;;27.05;42.15;100038.47;7276697;40;20690;31
2023/06/24 09:12:40;;;;;;;4.15;3.70;;;;;;;27.13;41.25;100027.78;7299484;39;20281;31
2023/06/24 09:18:16;;;;;;;5.78;3.58;;;;;;;27.21;41.76;100026.50;7223948;40;20718;31
2023/06/24 09:23:51;;;;;;;4.45;3.53;;;;;;;27.27;41.24;100018.03;7238368;40;20714;31
2023/06/24 09:29:28;;;;;;;4.00;3.60;;;;;;;27.09;40.47;100017.47;7195331;40;20273;31
2023/06/24 09:35:03;;;;;;;4.00;3.58;;;;;;;27.43;41.71;100010.75;7189138;40;20715;31
2023/06/24 09:40:38;;;;;;;5.55;3.80;;;;;;;27.55;38.24;100006.00;7211843;40;20721;31
2023/06/24 09:46:15;;;;;;;4.80;3.37;;;;;;;27.61;40.65;99990.25;7228389;40;20257;31
2023/06/24 09:51:51;;;;;;;4.10;3.06;;;;;;;27.72;39.39;99986.50;7225823;40;20350;31
2023/06/24 09:57:26;;;;;;;5.30;3.45;;;;;;;27.86;40.23;99981.41;7187000;40;20273;31
2023/06/24 10:03:03;;;;;;;4.06;3.34;;;;;;;28.14;38.97;99975.63;7178062;40;20250;31
2023/06/24 10:08:39;;;;;;;4.57;3.37;;;;;;;28.30;36.98;99971.91;7193709;40;20324;31
2023/06/24 10:13:59;;;;;;;3.80;3.50;;;;;;;28.46;37.18;99970.94;7249607;40;20571;31
2023/06/24 10:19:33;;;;;;;4.50;3.50;;;;;;;28.28;36.87;99962.16;7216854;40;20544;31
2023/06/24 10:25:08;;;;;;;3.80;3.40;;;;;;;28.52;37.94;99958.75;7230116;40;20559;31
2023/06/24 10:30:28;;;;;;;3.60;3.25;;;;;;;28.60;36.34;99961.06;7274501;39;20718;31
2023/06/24 10:36:04;;;;;;;3.97;3.40;;;;;;;28.87;37.16;99954.63;7281097;39;20677;31
2023/06/24 10:41:40;;;;;;;6.20;3.50;;;;;;;28.94;36.55;99944.09;7224991;39;20285;31
2023/06/24 10:52:21;;;;;;;5.70;3.90;;;;;;;28.94;36.11;99936.62;7263114;40;20345;31
2023/06/24 11:03:01;;;;;;;4.20;3.60;;;;;;;29.11;35.39;99919.75;7267880;40;20273;31
2023/06/24 11:08:39;;;;;;;4.72;3.72;;;;;;;29.15;36.19;99917.28;7258782;40;20457;31
2023/06/24 11:13:59;;;;;;;3.90;3.40;;;;;;;29.21;35.45;99913.44;7207221;40;20254;31
2023/06/24 11:19:19;;;;;;;3.85;3.45;;;;;;;29.53;35.98;99901.06;7201604;40;20242;31
2023/06/24 11:24:55;;;;;;;4.12;3.37;;;;;;;29.60;35.60;99884.16;7246014;40;20604;31
2023/06/24 11:30:31;;;;;;;5.93;3.53;;;;;;;29.65;34.34;99895.28;7203910;40;20269;31
2023/06/24 11:35:52;;;;;;;7.07;2.95;;;;;;;29.75;34.31;99889.72;7189831;40;20336;31
2023/06/24 11:41:29;;;;;;;3.50;3.20;;;;;;;29.30;34.51;99887.69;7200779;40;20580;31
2023/06/24 11:47:05;;;;;;;4.10;3.37;;;;;;;29.53;35.71;99880.81;7186046;40;20264;31
2023/06/24 11:52:44;;;;;;;3.80;3.40;;;;;;;29.65;33.61;99878.59;7249033;40;20732;31
2023/06/24 11:58:19;;;;;;;3.60;3.30;;;;;;;29.74;34.76;99865.00;7255753;40;20687;31
2023/06/24 12:03:54;;;;;;;4.60;3.30;;;;;;;29.95;33.61;99862.00;7215683;40;20273;31
2023/06/24 12:09:15;;;;;;;5.52;3.42;;;;;;;30.17;33.51;99870.06;7187208;40;20369;31
2023/06/24 12:19:55;;;;;;;3.50;3.20;;;;;;;30.26;32.44;99845.28;7193629;40;20254;31
2023/06/24 12:30:32;;;;;;;2.97;2.67;;;;;;;30.23;32.11;99846.69;7343233;39;20410;31
2023/06/24 12:36:08;;;;;;;3.58;3.22;;;;;;;30.19;31.43;99834.44;7303238;39;20713;31
2023/06/24 12:41:43;;;;;;;3.60;3.00;;;;;;;30.34;30.71;99819.69;7284794;39;20325;31
2023/06/24 12:47:19;;;;;;;3.97;2.90;;;;;;;30.51;32.01;99820.22;7278350;39;20687;31
2023/06/24 12:52:53;;;;;;;3.35;2.80;;;;;;;30.67;30.88;99802.34;7208163;40;20761;31
2023/06/24 12:58:29;;;;;;;5.05;2.85;;;;;;;30.64;30.71;99808.50;7218633;40;20565;31
2023/06/24 13:03:49;;;;;;;2.92;2.50;;;;;;;30.81;30.74;99808.16;7217774;40;20447;31
2023/06/24 13:09:25;;;;;;;5.32;2.78;;;;;;;30.85;28.08;99796.16;7217712;40;20579;31
2023/06/24 13:14:46;;;;;;;3.25;2.65;;;;;;;30.67;29.67;99794.00;7233797;39;20708;31
2023/06/24 13:20:22;;;;;;;4.20;2.80;;;;;;;30.84;30.08;99790.91;7261522;40;20245;31
2023/06/24 13:25:58;;;;;;;3.50;2.90;;;;;;;31.07;29.97;99783.88;7226494;40;20264;31
2023/06/24 13:31:33;;;;;;;3.40;3.00;;;;;;;31.22;30.14;99787.37;7244886;40;20241;31
2023/06/24 13:37:08;;;;;;;3.85;2.90;;;;;;;31.20;29.56;99786.03;7240899;40;20422;31
2023/06/24 13:42:45;;;;;;;4.88;3.18;;;;;;;31.17;29.88;99772.66;7210198;40;20563;31
2023/06/24 13:48:20;;;;;;;3.25;2.95;;;;;;;31.19;29.31;99774.03;7198009;40;20325;31
2023/06/24 13:53:40;;;;;;;4.35;3.00;;;;;;;31.06;29.98;99771.06;7241309;40;20670;31
2023/06/24 13:59:16;;;;;;;3.24;2.78;;;;;;;30.77;29.91;99765.31;7243921;40;20253;31
2023/06/24 14:04:37;;;;;;;3.70;3.40;;;;;;;30.67;30.26;99757.00;7226029;40;20620;31
2023/06/24 14:09:57;;;;;;;3.55;2.90;;;;;;;30.94;29.43;99746.28;7248434;40;20747;31
2023/06/24 14:15:32;;;;;;;4.53;3.03;;;;;;;31.05;30.24;99750.72;7263494;40;20895;31
2023/06/24 14:21:08;;;;;;;4.95;3.17;;;;;;;31.15;30.67;99741.47;7273735;40;20522;31
2023/06/24 14:26:42;;;;;;;3.30;2.90;;;;;;;31.24;29.30;99736.97;7236706;40;20595;31
2023/06/24 14:32:20;;;;;;;3.72;2.92;;;;;;;31.08;29.33;99733.44;7201145;40;20660;31
2023/06/24 14:37:55;;;;;;;3.20;2.90;;;;;;;30.95;29.29;99727.63;7143322;40;20343;31
2023/06/24 14:43:30;;;;;;;3.30;2.90;;;;;;;30.97;30.38;99720.66;7207319;40;20359;31
2023/06/24 14:49:07;;;;;;;3.30;3.00;;;;;;;31.18;29.27;99707.47;7212135;40;20750;31
2023/06/24 14:54:27;;;;;;;3.97;3.00;;;;;;;31.28;29.29;99707.41;7221104;40;20623;31
2023/06/24 15:00:03;;;;;;;4.10;3.00;;;;;;;31.27;29.18;99705.72;7253268;40;20249;31
2023/06/24 15:05:39;;;;;;;3.47;2.93;;;;;;;31.27;29.01;99695.41;7265680;40;20636;31
2023/06/24 15:11:14;;;;;;;5.40;3.40;;;;;;;31.19;29.50;99698.00;7257048;40;20569;31
2023/06/24 15:16:46;;;;;;;4.33;3.13;;;;;;;31.07;29.00;99686.38;7063111;40;21435;31
2023/06/24 15:22:23;;;;;;;3.33;3.03;;;;;;;31.00;28.95;99694.19;7253958;39;20651;31
2023/06/24 15:27:42;;;;;;;4.28;2.95;;;;;;;31.08;29.72;99686.06;7239133;40;20570;31
2023/06/24 15:33:02;;;;;;;3.65;3.10;;;;;;;31.35;28.81;99673.63;7226721;40;20264;31
2023/06/24 15:38:37;;;;;;;5.00;3.00;;;;;;;31.42;29.69;99668.56;7287665;39;20486;31
2023/06/24 15:43:57;;;;;;;3.32;2.70;;;;;;;31.42;29.12;99669.34;7276701;39;20549;31
2023/06/24 15:49:32;;;;;;;4.08;3.08;;;;;;;31.15;29.57;99657.91;7291625;39;20330;31
2023/06/24 15:55:08;;;;;;;3.50;3.20;;;;;;;31.21;29.60;99657.56;7246299;40;20741;31
2023/06/24 16:00:44;;;;;;;3.78;3.28;;;;;;;31.11;29.63;99656.81;7287046;39;20276;31
2023/06/24 16:06:20;;;;;;;3.37;2.80;;;;;;;31.06;29.48;99654.91;7252906;40;20573;31
2023/06/24 16:11:56;;;;;;;5.87;3.40;;;;;;;31.20;29.02;99650.31;7258079;40;20266;31
2023/06/24 16:17:31;;;;;;;3.50;3.20;;;;;;;31.14;29.46;99647.88;7277820;39;20643;31
2023/06/24 16:22:51;;;;;;;3.63;3.33;;;;;;;31.04;29.97;99639.59;7263881;40;20869;31
2023/06/24 16:28:27;;;;;;;3.40;3.10;;;;;;;30.85;29.53;99634.66;7295565;39;20356;31
2023/06/24 16:34:02;;;;;;;3.47;3.17;;;;;;;30.70;30.38;99636.72;7225480;40;20340;31
2023/06/24 16:39:37;;;;;;;5.00;3.00;;;;;;;30.92;30.08;99636.31;7219370;40;20281;31
2023/06/24 16:45:13;;;;;;;4.20;3.20;;;;;;;30.95;29.08;99646.88;7175952;40;20356;31
2023/06/24 16:55:50;;;;;;;6.03;3.30;;;;;;;30.60;30.48;99631.22;7268154;39;20475;31
2023/06/24 17:06:31;;;;;;;4.97;3.33;;;;;;;30.30;30.22;99621.88;7315089;39;20271;31
2023/06/24 17:17:08;;;;;;;5.93;3.40;;;;;;;30.07;32.08;99616.12;7331496;39;20256;31
2023/06/24 17:22:42;;;;;;;3.95;3.55;;;;;;;29.90;31.94;99619.25;7317986;39;20255;31
2023/06/24 17:28:17;;;;;;;5.37;3.65;;;;;;;29.77;33.09;99608.69;7338929;39;20418;31
2023/06/24 17:33:37;;;;;;;4.65;3.30;;;;;;;29.70;32.55;99610.97;7298084;40;20256;31
2023/06/24 17:39:13;;;;;;;3.70;3.30;;;;;;;29.60;32.95;99617.38;7278134;39;20251;31
2023/06/24 17:44:48;;;;;;;4.62;3.40;;;;;;;29.44;32.64;99610.19;7239100;40;20331;31
2023/06/24 17:50:23;;;;;;;3.40;3.10;;;;;;;29.30;33.69;99609.06;7218936;40;20253;31
2023/06/24 17:55:58;;;;;;;3.67;3.37;;;;;;;29.07;32.96;99604.87;7240119;40;20281;31
2023/06/24 18:01:33;;;;;;;4.20;3.60;;;;;;;29.00;33.36;99598.78;7249251;40;20253;31
2023/06/24 18:06:53;;;;;;;4.00;3.60;;;;;;;28.98;34.11;99596.28;7226194;40;20284;31
2023/06/24 18:12:30;;;;;;;3.70;3.30;;;;;;;28.93;34.00;99595.44;7199234;40;20273;31
2023/06/24 18:18:04;;;;;;;4.40;3.60;;;;;;;28.89;35.05;99594.31;7217803;40;20331;31
2023/06/24 18:23:39;;;;;;;4.07;3.30;;;;;;;28.68;35.50;99590.66;7241619;40;20257;31
2023/06/24 18:29:15;;;;;;;4.40;3.55;;;;;;;28.54;35.30;99590.34;7224190;40;20257;31
2023/06/24 18:34:50;;;;;;;3.60;3.30;;;;;;;28.42;35.89;99587.00;7285062;39;20267;31
2023/06/24 18:40:12;;;;;;;3.85;3.05;;;;;;;28.37;35.65;99584.22;7260534;40;20246;31
2023/06/24 18:45:47;;;;;;;3.32;3.02;;;;;;;28.18;36.44;99578.34;7282256;39;20268;31
2023/06/24 18:51:22;;;;;;;3.97;3.45;;;;;;;28.14;36.23;99582.75;7206746;40;20284;31
2023/06/24 19:02:01;;;;;;;4.73;3.87;;;;;;;28.11;36.88;99582.47;7320183;39;20420;31
2023/06/24 19:12:26;;;;;;;3.90;3.35;;;;;;;27.95;37.60;99575.97;7256252;40;20261;31
2023/06/24 19:18:02;;;;;;;4.70;3.40;;;;;;;27.77;37.26;99574.53;7254666;40;20284;31
2023/06/24 19:23:23;;;;;;;4.12;3.40;;;;;;;27.70;38.47;99571.16;7212147;40;21242;31
2023/06/24 19:28:41;;;;;;;4.20;3.65;;;;;;;27.59;37.53;99572.22;7276300;40;21353;31
2023/06/24 19:34:13;;;;;;;4.10;3.65;;;;;;;27.37;39.57;99560.44;7250588;40;21329;31
2023/06/24 19:39:45;;;;;;;4.20;3.57;;;;;;;27.20;40.60;99568.91;7257344;40;21355;31
2023/06/24 19:45:02;;;;;;;3.90;3.50;;;;;;;26.97;41.00;99573.97;7227713;40;20250;31
2023/06/24 19:50:38;;;;;;;4.80;4.10;;;;;;;26.68;42.27;99574.22;7211019;40;21241;31
2023/06/24 19:55:56;;;;;;;5.65;4.00;;;;;;;26.48;41.99;99582.31;7200735;40;21231;31
2023/06/24 20:01:27;;;;;;;4.30;3.90;;;;;;;26.18;43.08;99587.50;7237009;40;21222;31
2023/06/24 20:07:03;;;;;;;5.75;4.45;;;;;;;25.91;44.21;99577.22;7204304;40;21253;31
2023/06/24 20:12:38;;;;;;;5.40;4.14;;;;;;;25.82;43.89;99578.75;7204744;40;20259;31
2023/06/24 20:23:15;;;;;;;4.90;4.40;;;;;;;25.51;44.79;99582.16;7234650;40;20257;31
2023/06/24 20:33:54;;;;;;;4.40;4.00;;;;;;;25.08;46.10;99580.97;7232326;40;20254;31
2023/06/24 20:44:46;;;;;;;6.45;4.80;;;;;;;24.79;46.19;99573.00;7338057;39;20276;31
2023/06/24 20:55:23;;;;;;;5.22;4.50;;;;;;;24.67;46.85;99581.31;7329161;39;21117;31
2023/06/24 21:01:01;;;;;;;8.20;4.70;;;;;;;24.53;45.81;99586.31;7295466;39;21295;31
2023/06/24 21:11:39;;;;;;;5.57;4.43;;;;;;;24.24;47.65;99582.75;7277384;39;21110;31
2023/06/24 21:17:16;;;;;;;5.00;4.28;;;;;;;24.11;48.51;99573.91;7296032;39;21299;31
2023/06/24 21:22:49;;;;;;;7.50;4.60;;;;;;;24.13;48.57;99572.56;7274397;40;21277;31
2023/06/24 21:28:07;;;;;;;6.00;4.60;;;;;;;23.90;48.75;99574.56;7269059;40;21211;31
2023/06/24 21:33:42;;;;;;;6.78;5.20;;;;;;;23.71;48.80;99571.12;7261699;40;21220;31
2023/06/24 21:39:13;;;;;;;4.97;4.47;;;;;;;23.55;49.95;99566.37;7290336;39;21309;31
2023/06/24 21:44:33;;;;;;;6.15;4.50;;;;;;;23.49;49.30;99568.19;7222859;40;20547;31
2023/06/24 21:55:12;;;;;;;5.72;4.97;;;;;;;23.00;51.17;99558.47;7207191;40;21152;31
2023/06/24 22:00:47;;;;;;;6.40;4.70;;;;;;;22.88;51.11;99574.13;7212790;40;20302;31
2023/06/24 22:06:05;;;;;;;5.20;4.70;;;;;;;22.82;51.29;99569.56;7277701;39;21278;31
2023/06/24 22:11:38;;;;;;;5.65;5.05;;;;;;;22.49;52.43;99564.56;7247702;40;20494;31
2023/06/24 22:16:55;;;;;;;5.37;4.50;;;;;;;22.58;51.61;99565.06;7207720;40;21191;31
2023/06/24 22:22:15;;;;;;;7.03;4.80;;;;;;;22.65;51.61;99568.53;7037474;40;20236;31
2023/06/24 22:27:48;;;;;;;5.63;4.40;;;;;;;22.59;51.95;99555.75;7221269;40;21341;31
2023/06/24 22:33:08;;;;;;;5.20;4.60;;;;;;;22.55;51.63;99560.91;7264028;40;21189;31
2023/06/24 22:43:46;;;;;;;5.10;4.60;;;;;;;22.19;52.85;99553.63;7256118;40;20265;31
2023/06/24 22:54:23;;;;;;;6.87;4.60;;;;;;;22.05;52.86;99559.50;7236346;40;20273;31
2023/06/24 22:59:56;;;;;;;4.50;4.00;;;;;;;21.92;53.45;99557.75;7196736;40;21316;31
2023/06/24 23:05:29;;;;;;;5.18;4.68;;;;;;;21.79;53.60;99560.66;7195635;40;20377;31
2023/06/24 23:11:03;;;;;;;7.78;4.50;;;;;;;21.73;53.88;99567.06;7236934;40;21221;31
2023/06/24 23:16:36;;;;;;;4.80;4.30;;;;;;;21.55;54.24;99560.50;7206382;40;21290;31
2023/06/24 23:22:13;;;;;;;5.65;4.93;;;;;;;21.43;54.94;99554.13;7217846;40;20232;31
2023/06/24 23:27:43;;;;;;;5.15;4.65;;;;;;;21.35;55.23;99551.69;7213640;40;21276;31
2023/06/24 23:33:16;;;;;;;6.25;4.70;;;;;;;21.38;53.92;99556.69;7194229;40;21354;31
2023/06/24 23:38:37;;;;;;;5.30;4.50;;;;;;;21.38;54.11;99545.72;7155276;40;21279;31
2023/06/24 23:49:17;;;;;;;6.27;4.67;;;;;;;21.31;54.05;99544.97;7222810;40;20471;31
2023/06/24 23:54:49;;;;;;;6.90;4.60;;;;;;;21.16;55.48;99540.91;7284643;39;21288;31
